A80 TRACON Summary / KATL TAF
ATL TRACON Summary:
Expect FEW/SCT025-060 clouds early this morning with SCT/briefly BKN025-035 clouds developing by 15-16z with late morning heating. Convection is not expected. Surface winds will be variable at 3-7kts, but mostly from the northwest this morning and shifting to the northeast by 18-21z. Flight Hazards in the TRACON airspace: None Expected.

Updated:9/1/2015 6:14 AM
ATL Terminal Aerodrome Forecast:

FTUS80 KATL 011600 AAA
KATL 011558Z 0116/0218 VRB03KT P6SM FEW035 SCT250
      TEMPO 0116/0118 BKN030
     FM011800 13005KT P6SM SCT040 SCT250
     FM020000 VRB03KT P6SM SCT250
     FM021500 35004KT P6SM FEW035 SCT250
ATL TRACON Area Remark:
None.
Convective Gate Forecast / Icing Gate Forecast / Vertical Wind Profile (click on image to enlarge)
Convective Gate Forecast
Icing Gate Forecast
table with gate forecasts (convective and CCFP) used April - November while icing gate forecasts are issued
AIRMETs & SIGMETS/ Southeast Radar loop / Satellite Image (click on image to enlarge)

Southeast Radar Loop

 



USA.gov is the U.S. government's official web portal to all federal, state and local government web resources and services.